sensor_id;sensor_type;location;lat;lon;timestamp;P1;durP1;ratioP1;P2;durP2;ratioP2
73113;SDS011;61301;51.956;5.876;2022-12-18T00:01:02;25.35;;;13.75;;
73113;SDS011;61301;51.956;5.876;2022-12-18T00:03:35;32.72;;;17.10;;
73113;SDS011;61301;51.956;5.876;2022-12-18T00:06:01;37.33;;;18.50;;
73113;SDS011;61301;51.956;5.876;2022-12-18T00:08:27;31.92;;;16.42;;
73113;SDS011;61301;51.956;5.876;2022-12-18T00:10:53;40.40;;;20.45;;
73113;SDS011;61301;51.956;5.876;2022-12-18T00:13:20;37.97;;;20.13;;
73113;SDS011;61301;51.956;5.876;2022-12-18T00:15:46;34.83;;;18.45;;
73113;SDS011;61301;51.956;5.876;2022-12-18T00:18:12;24.17;;;13.63;;
73113;SDS011;61301;51.956;5.876;2022-12-18T00:20:38;24.15;;;12.27;;
73113;SDS011;61301;51.956;5.876;2022-12-18T00:23:05;47.75;;;25.08;;
73113;SDS011;61301;51.956;5.876;2022-12-18T00:25:33;44.60;;;23.70;;
73113;SDS011;61301;51.956;5.876;2022-12-18T00:28:00;36.83;;;19.90;;
73113;SDS011;61301;51.956;5.876;2022-12-18T00:30:27;32.20;;;17.98;;
73113;SDS011;61301;51.956;5.876;2022-12-18T00:32:54;32.28;;;17.60;;
73113;SDS011;61301;51.956;5.876;2022-12-18T00:35:20;32.28;;;16.60;;
73113;SDS011;61301;51.956;5.876;2022-12-18T00:37:46;46.28;;;24.77;;
73113;SDS011;61301;51.956;5.876;2022-12-18T00:40:12;42.63;;;23.83;;
73113;SDS011;61301;51.956;5.876;2022-12-18T00:42:38;36.25;;;19.02;;
73113;SDS011;61301;51.956;5.876;2022-12-18T00:45:24;41.20;;;21.83;;
73113;SDS011;61301;51.956;5.876;2022-12-18T00:47:52;43.33;;;23.85;;
73113;SDS011;61301;51.956;5.876;2022-12-18T00:50:18;43.65;;;23.30;;
73113;SDS011;61301;51.956;5.876;2022-12-18T00:52:44;36.22;;;17.77;;
73113;SDS011;61301;51.956;5.876;2022-12-18T00:55:11;41.65;;;23.30;;
73113;SDS011;61301;51.956;5.876;2022-12-18T00:57:37;42.75;;;22.80;;
73113;SDS011;61301;51.956;5.876;2022-12-18T01:00:04;38.83;;;21.23;;
73113;SDS011;61301;51.956;5.876;2022-12-18T01:02:31;39.65;;;20.77;;
73113;SDS011;61301;51.956;5.876;2022-12-18T01:04:57;30.35;;;16.95;;
73113;SDS011;61301;51.956;5.876;2022-12-18T01:07:23;28.55;;;16.52;;
73113;SDS011;61301;51.956;5.876;2022-12-18T01:09:49;35.47;;;19.23;;
73113;SDS011;61301;51.956;5.876;2022-12-18T01:12:15;33.95;;;18.25;;
73113;SDS011;61301;51.956;5.876;2022-12-18T01:14:41;38.55;;;22.75;;
73113;SDS011;61301;51.956;5.876;2022-12-18T01:17:07;38.03;;;19.65;;
73113;SDS011;61301;51.956;5.876;2022-12-18T01:19:33;25.27;;;13.90;;
73113;SDS011;61301;51.956;5.876;2022-12-18T01:21:59;37.53;;;19.67;;
73113;SDS011;61301;51.956;5.876;2022-12-18T01:24:25;33.08;;;18.05;;
73113;SDS011;61301;51.956;5.876;2022-12-18T01:26:51;30.95;;;18.45;;
73113;SDS011;61301;51.956;5.876;2022-12-18T01:29:17;31.63;;;18.35;;
73113;SDS011;61301;51.956;5.876;2022-12-18T01:31:43;28.52;;;15.60;;
73113;SDS011;61301;51.956;5.876;2022-12-18T01:34:09;25.65;;;14.15;;
73113;SDS011;61301;51.956;5.876;2022-12-18T01:36:36;22.80;;;13.25;;
73113;SDS011;61301;51.956;5.876;2022-12-18T01:39:06;24.02;;;13.43;;
73113;SDS011;61301;51.956;5.876;2022-12-18T01:41:35;28.77;;;16.83;;
73113;SDS011;61301;51.956;5.876;2022-12-18T01:55:38;18.75;;;10.13;;
73113;SDS011;61301;51.956;5.876;2022-12-18T01:58:12;22.67;;;12.02;;
73113;SDS011;61301;51.956;5.876;2022-12-18T02:00:38;20.98;;;11.98;;
73113;SDS011;61301;51.956;5.876;2022-12-18T02:03:04;21.98;;;12.73;;
73113;SDS011;61301;51.956;5.876;2022-12-18T02:05:37;21.80;;;11.13;;
73113;SDS011;61301;51.956;5.876;2022-12-18T02:11:37;17.88;;;9.57;;
73113;SDS011;61301;51.956;5.876;2022-12-18T02:21:57;15.32;;;9.48;;
73113;SDS011;61301;51.956;5.876;2022-12-18T02:24:43;21.35;;;12.15;;
73113;SDS011;61301;51.956;5.876;2022-12-18T02:27:29;19.52;;;11.73;;
73113;SDS011;61301;51.956;5.876;2022-12-18T02:29:57;14.93;;;8.55;;
73113;SDS011;61301;51.956;5.876;2022-12-18T02:32:32;18.70;;;12.10;;
73113;SDS011;61301;51.956;5.876;2022-12-18T02:35:01;21.15;;;12.05;;
73113;SDS011;61301;51.956;5.876;2022-12-18T02:37:29;16.08;;;9.07;;
73113;SDS011;61301;51.956;5.876;2022-12-18T02:40:00;13.75;;;8.45;;
73113;SDS011;61301;51.956;5.876;2022-12-18T02:42:30;15.43;;;7.93;;
73113;SDS011;61301;51.956;5.876;2022-12-18T02:44:57;15.82;;;8.55;;
73113;SDS011;61301;51.956;5.876;2022-12-18T02:47:27;16.10;;;8.23;;
73113;SDS011;61301;51.956;5.876;2022-12-18T03:01:13;17.90;;;9.52;;
73113;SDS011;61301;51.956;5.876;2022-12-18T03:04:20;17.02;;;10.25;;
73113;SDS011;61301;51.956;5.876;2022-12-18T03:06:56;14.55;;;9.63;;
73113;SDS011;61301;51.956;5.876;2022-12-18T03:09:34;19.77;;;10.70;;
73113;SDS011;61301;51.956;5.876;2022-12-18T03:17:39;20.15;;;12.50;;
73113;SDS011;61301;51.956;5.876;2022-12-18T03:20:10;21.02;;;10.95;;
73113;SDS011;61301;51.956;5.876;2022-12-18T03:22:40;14.77;;;9.10;;
73113;SDS011;61301;51.956;5.876;2022-12-18T03:25:10;15.82;;;9.38;;
73113;SDS011;61301;51.956;5.876;2022-12-18T03:27:41;16.70;;;9.70;;
73113;SDS011;61301;51.956;5.876;2022-12-18T03:30:14;20.13;;;10.68;;
73113;SDS011;61301;51.956;5.876;2022-12-18T03:35:20;19.75;;;12.77;;
73113;SDS011;61301;51.956;5.876;2022-12-18T03:37:49;21.98;;;11.63;;
73113;SDS011;61301;51.956;5.876;2022-12-18T03:40:16;18.55;;;9.45;;
73113;SDS011;61301;51.956;5.876;2022-12-18T03:42:46;24.50;;;13.07;;
73113;SDS011;61301;51.956;5.876;2022-12-18T03:45:34;19.20;;;10.95;;
73113;SDS011;61301;51.956;5.876;2022-12-18T03:48:11;23.08;;;13.30;;
73113;SDS011;61301;51.956;5.876;2022-12-18T03:51:14;19.63;;;12.27;;
73113;SDS011;61301;51.956;5.876;2022-12-18T03:53:51;21.05;;;10.60;;
73113;SDS011;61301;51.956;5.876;2022-12-18T03:56:33;20.20;;;10.73;;
73113;SDS011;61301;51.956;5.876;2022-12-18T03:59:05;20.58;;;11.27;;
73113;SDS011;61301;51.956;5.876;2022-12-18T04:01:37;18.08;;;10.35;;
73113;SDS011;61301;51.956;5.876;2022-12-18T04:04:07;18.02;;;9.48;;
73113;SDS011;61301;51.956;5.876;2022-12-18T04:06:37;19.67;;;10.98;;
73113;SDS011;61301;51.956;5.876;2022-12-18T04:09:08;20.63;;;11.13;;
73113;SDS011;61301;51.956;5.876;2022-12-18T04:11:39;20.83;;;12.95;;
73113;SDS011;61301;51.956;5.876;2022-12-18T04:14:07;18.95;;;10.48;;
73113;SDS011;61301;51.956;5.876;2022-12-18T04:16:33;14.10;;;8.15;;
73113;SDS011;61301;51.956;5.876;2022-12-18T04:19:02;18.75;;;11.55;;
73113;SDS011;61301;51.956;5.876;2022-12-18T04:21:34;15.57;;;8.90;;
73113;SDS011;61301;51.956;5.876;2022-12-18T04:24:00;19.45;;;11.32;;
73113;SDS011;61301;51.956;5.876;2022-12-18T04:26:27;15.88;;;8.63;;
73113;SDS011;61301;51.956;5.876;2022-12-18T04:29:06;13.75;;;7.70;;
73113;SDS011;61301;51.956;5.876;2022-12-18T04:31:32;18.08;;;11.13;;
73113;SDS011;61301;51.956;5.876;2022-12-18T04:33:58;19.10;;;10.70;;
73113;SDS011;61301;51.956;5.876;2022-12-18T04:36:24;14.25;;;8.52;;
73113;SDS011;61301;51.956;5.876;2022-12-18T04:38:50;17.67;;;10.15;;
73113;SDS011;61301;51.956;5.876;2022-12-18T04:41:17;15.93;;;9.55;;
73113;SDS011;61301;51.956;5.876;2022-12-18T04:43:46;18.27;;;9.93;;
73113;SDS011;61301;51.956;5.876;2022-12-18T04:46:12;18.13;;;9.75;;
73113;SDS011;61301;51.956;5.876;2022-12-18T04:48:38;15.48;;;9.65;;
73113;SDS011;61301;51.956;5.876;2022-12-18T04:51:05;15.63;;;8.77;;
73113;SDS011;61301;51.956;5.876;2022-12-18T04:53:32;15.40;;;9.02;;
73113;SDS011;61301;51.956;5.876;2022-12-18T04:56:05;12.88;;;7.40;;
73113;SDS011;61301;51.956;5.876;2022-12-18T04:58:33;15.93;;;8.70;;
73113;SDS011;61301;51.956;5.876;2022-12-18T05:01:00;14.80;;;8.32;;
73113;SDS011;61301;51.956;5.876;2022-12-18T05:03:26;14.02;;;7.95;;
73113;SDS011;61301;51.956;5.876;2022-12-18T05:05:52;15.30;;;9.23;;
73113;SDS011;61301;51.956;5.876;2022-12-18T05:08:18;14.18;;;7.18;;
73113;SDS011;61301;51.956;5.876;2022-12-18T05:10:44;16.05;;;9.70;;
73113;SDS011;61301;51.956;5.876;2022-12-18T05:13:10;12.38;;;7.10;;
73113;SDS011;61301;51.956;5.876;2022-12-18T05:15:36;9.95;;;6.22;;
73113;SDS011;61301;51.956;5.876;2022-12-18T05:18:02;8.38;;;4.55;;
73113;SDS011;61301;51.956;5.876;2022-12-18T05:20:29;9.32;;;5.30;;
73113;SDS011;61301;51.956;5.876;2022-12-18T05:22:55;10.00;;;5.70;;
73113;SDS011;61301;51.956;5.876;2022-12-18T05:25:22;8.75;;;5.50;;
73113;SDS011;61301;51.956;5.876;2022-12-18T05:27:48;8.65;;;4.75;;
73113;SDS011;61301;51.956;5.876;2022-12-18T05:30:14;11.27;;;6.93;;
73113;SDS011;61301;51.956;5.876;2022-12-18T05:32:41;6.97;;;4.88;;
73113;SDS011;61301;51.956;5.876;2022-12-18T05:35:07;10.80;;;5.65;;
73113;SDS011;61301;51.956;5.876;2022-12-18T05:37:35;10.05;;;4.65;;
73113;SDS011;61301;51.956;5.876;2022-12-18T05:40:02;8.75;;;5.68;;
73113;SDS011;61301;51.956;5.876;2022-12-18T05:42:29;5.97;;;3.85;;
73113;SDS011;61301;51.956;5.876;2022-12-18T05:44:55;6.90;;;4.63;;
73113;SDS011;61301;51.956;5.876;2022-12-18T05:47:21;5.03;;;3.28;;
73113;SDS011;61301;51.956;5.876;2022-12-18T05:49:47;7.50;;;4.35;;
73113;SDS011;61301;51.956;5.876;2022-12-18T05:52:14;9.18;;;5.60;;
73113;SDS011;61301;51.956;5.876;2022-12-18T05:54:40;13.70;;;8.35;;
73113;SDS011;61301;51.956;5.876;2022-12-18T05:57:06;13.35;;;7.93;;
73113;SDS011;61301;51.956;5.876;2022-12-18T05:59:32;12.13;;;7.95;;
73113;SDS011;61301;51.956;5.876;2022-12-18T06:01:58;14.25;;;8.77;;
73113;SDS011;61301;51.956;5.876;2022-12-18T06:04:24;14.85;;;8.60;;
73113;SDS011;61301;51.956;5.876;2022-12-18T06:06:53;16.30;;;9.00;;
73113;SDS011;61301;51.956;5.876;2022-12-18T06:09:19;15.40;;;8.23;;
73113;SDS011;61301;51.956;5.876;2022-12-18T06:11:45;9.90;;;7.22;;
73113;SDS011;61301;51.956;5.876;2022-12-18T06:14:11;15.13;;;8.43;;
73113;SDS011;61301;51.956;5.876;2022-12-18T06:16:37;13.93;;;7.57;;
73113;SDS011;61301;51.956;5.876;2022-12-18T06:19:03;15.73;;;9.80;;
73113;SDS011;61301;51.956;5.876;2022-12-18T06:21:31;16.25;;;9.48;;
73113;SDS011;61301;51.956;5.876;2022-12-18T06:23:58;13.40;;;7.82;;
73113;SDS011;61301;51.956;5.876;2022-12-18T06:26:25;14.50;;;8.38;;
73113;SDS011;61301;51.956;5.876;2022-12-18T06:28:51;13.13;;;8.25;;
73113;SDS011;61301;51.956;5.876;2022-12-18T06:31:17;15.25;;;9.93;;
73113;SDS011;61301;51.956;5.876;2022-12-18T06:33:43;11.07;;;7.28;;
73113;SDS011;61301;51.956;5.876;2022-12-18T06:36:09;13.93;;;8.57;;
73113;SDS011;61301;51.956;5.876;2022-12-18T06:38:39;16.42;;;10.07;;
73113;SDS011;61301;51.956;5.876;2022-12-18T06:41:16;10.95;;;7.20;;
73113;SDS011;61301;51.956;5.876;2022-12-18T06:43:44;14.35;;;8.43;;
73113;SDS011;61301;51.956;5.876;2022-12-18T06:46:10;13.75;;;7.95;;
73113;SDS011;61301;51.956;5.876;2022-12-18T06:48:37;13.30;;;8.52;;
73113;SDS011;61301;51.956;5.876;2022-12-18T06:51:03;13.85;;;8.98;;
73113;SDS011;61301;51.956;5.876;2022-12-18T06:53:30;14.77;;;9.00;;
73113;SDS011;61301;51.956;5.876;2022-12-18T06:56:01;12.98;;;7.50;;
73113;SDS011;61301;51.956;5.876;2022-12-18T06:58:31;12.48;;;8.18;;
73113;SDS011;61301;51.956;5.876;2022-12-18T07:01:01;15.68;;;9.80;;
73113;SDS011;61301;51.956;5.876;2022-12-18T07:03:29;14.00;;;9.05;;
73113;SDS011;61301;51.956;5.876;2022-12-18T07:05:55;14.57;;;9.10;;
73113;SDS011;61301;51.956;5.876;2022-12-18T07:08:22;12.63;;;7.13;;
73113;SDS011;61301;51.956;5.876;2022-12-18T07:10:48;12.38;;;7.68;;
73113;SDS011;61301;51.956;5.876;2022-12-18T07:13:16;12.48;;;7.68;;
73113;SDS011;61301;51.956;5.876;2022-12-18T07:15:43;16.27;;;8.38;;
73113;SDS011;61301;51.956;5.876;2022-12-18T07:18:09;12.80;;;7.25;;
73113;SDS011;61301;51.956;5.876;2022-12-18T07:20:35;8.52;;;6.45;;
73113;SDS011;61301;51.956;5.876;2022-12-18T07:23:02;15.10;;;9.05;;
73113;SDS011;61301;51.956;5.876;2022-12-18T07:25:29;13.45;;;8.75;;
73113;SDS011;61301;51.956;5.876;2022-12-18T07:27:55;11.63;;;6.55;;
73113;SDS011;61301;51.956;5.876;2022-12-18T07:30:21;12.00;;;7.57;;
73113;SDS011;61301;51.956;5.876;2022-12-18T07:32:47;13.80;;;8.18;;
73113;SDS011;61301;51.956;5.876;2022-12-18T07:35:13;12.65;;;7.72;;
73113;SDS011;61301;51.956;5.876;2022-12-18T07:37:39;12.93;;;7.75;;
73113;SDS011;61301;51.956;5.876;2022-12-18T07:40:05;13.40;;;8.27;;
73113;SDS011;61301;51.956;5.876;2022-12-18T07:42:31;13.30;;;8.40;;
73113;SDS011;61301;51.956;5.876;2022-12-18T07:44:58;11.55;;;7.97;;
73113;SDS011;61301;51.956;5.876;2022-12-18T07:47:25;16.20;;;9.80;;
73113;SDS011;61301;51.956;5.876;2022-12-18T07:49:51;14.57;;;9.27;;
73113;SDS011;61301;51.956;5.876;2022-12-18T07:52:17;13.93;;;9.10;;
73113;SDS011;61301;51.956;5.876;2022-12-18T07:54:44;14.20;;;8.55;;
73113;SDS011;61301;51.956;5.876;2022-12-18T07:57:10;14.27;;;10.05;;
73113;SDS011;61301;51.956;5.876;2022-12-18T07:59:36;13.98;;;9.32;;
73113;SDS011;61301;51.956;5.876;2022-12-18T08:02:02;16.27;;;9.70;;
73113;SDS011;61301;51.956;5.876;2022-12-18T08:04:28;16.67;;;8.18;;
73113;SDS011;61301;51.956;5.876;2022-12-18T08:06:54;19.75;;;11.43;;
73113;SDS011;61301;51.956;5.876;2022-12-18T08:09:20;13.10;;;8.27;;
73113;SDS011;61301;51.956;5.876;2022-12-18T08:11:46;13.77;;;9.02;;
73113;SDS011;61301;51.956;5.876;2022-12-18T08:14:12;13.23;;;7.63;;
73113;SDS011;61301;51.956;5.876;2022-12-18T08:16:39;15.70;;;9.55;;
73113;SDS011;61301;51.956;5.876;2022-12-18T08:19:05;13.05;;;8.88;;
73113;SDS011;61301;51.956;5.876;2022-12-18T08:21:31;17.13;;;9.45;;
73113;SDS011;61301;51.956;5.876;2022-12-18T08:23:59;13.30;;;8.95;;
73113;SDS011;61301;51.956;5.876;2022-12-18T08:26:28;14.75;;;9.05;;
73113;SDS011;61301;51.956;5.876;2022-12-18T08:28:55;11.93;;;7.82;;
73113;SDS011;61301;51.956;5.876;2022-12-18T08:31:23;12.05;;;8.10;;
73113;SDS011;61301;51.956;5.876;2022-12-18T08:33:51;14.63;;;9.55;;
73113;SDS011;61301;51.956;5.876;2022-12-18T08:36:18;11.88;;;7.88;;
73113;SDS011;61301;51.956;5.876;2022-12-18T08:38:45;10.43;;;6.85;;
73113;SDS011;61301;51.956;5.876;2022-12-18T08:41:12;13.00;;;8.60;;
73113;SDS011;61301;51.956;5.876;2022-12-18T08:43:40;13.15;;;8.52;;
73113;SDS011;61301;51.956;5.876;2022-12-18T08:46:25;13.65;;;8.15;;
73113;SDS011;61301;51.956;5.876;2022-12-18T08:48:53;13.32;;;8.52;;
73113;SDS011;61301;51.956;5.876;2022-12-18T08:51:20;14.27;;;8.27;;
73113;SDS011;61301;51.956;5.876;2022-12-18T08:53:46;13.75;;;8.38;;
73113;SDS011;61301;51.956;5.876;2022-12-18T08:56:13;15.30;;;8.60;;
73113;SDS011;61301;51.956;5.876;2022-12-18T08:58:40;13.98;;;9.15;;
73113;SDS011;61301;51.956;5.876;2022-12-18T09:01:07;12.45;;;8.10;;
73113;SDS011;61301;51.956;5.876;2022-12-18T09:03:35;11.90;;;8.00;;
73113;SDS011;61301;51.956;5.876;2022-12-18T09:06:01;13.40;;;8.25;;
73113;SDS011;61301;51.956;5.876;2022-12-18T09:08:27;9.60;;;6.30;;
73113;SDS011;61301;51.956;5.876;2022-12-18T09:10:54;14.15;;;7.95;;
73113;SDS011;61301;51.956;5.876;2022-12-18T09:13:20;12.23;;;7.97;;
73113;SDS011;61301;51.956;5.876;2022-12-18T09:15:48;13.35;;;7.85;;
73113;SDS011;61301;51.956;5.876;2022-12-18T09:18:16;15.27;;;10.20;;
73113;SDS011;61301;51.956;5.876;2022-12-18T09:20:43;13.25;;;8.30;;
73113;SDS011;61301;51.956;5.876;2022-12-18T09:23:10;12.45;;;7.85;;
73113;SDS011;61301;51.956;5.876;2022-12-18T09:25:36;14.57;;;7.35;;
73113;SDS011;61301;51.956;5.876;2022-12-18T09:28:03;12.10;;;7.65;;
73113;SDS011;61301;51.956;5.876;2022-12-18T09:30:39;13.45;;;8.45;;
73113;SDS011;61301;51.956;5.876;2022-12-18T09:33:10;11.23;;;7.53;;
73113;SDS011;61301;51.956;5.876;2022-12-18T09:35:36;13.05;;;7.90;;
73113;SDS011;61301;51.956;5.876;2022-12-18T09:38:03;12.20;;;7.93;;
73113;SDS011;61301;51.956;5.876;2022-12-18T09:40:32;14.77;;;8.50;;
73113;SDS011;61301;51.956;5.876;2022-12-18T09:43:07;14.52;;;8.05;;
73113;SDS011;61301;51.956;5.876;2022-12-18T09:45:53;11.07;;;7.63;;
73113;SDS011;61301;51.956;5.876;2022-12-18T09:48:28;14.27;;;8.82;;
73113;SDS011;61301;51.956;5.876;2022-12-18T09:50:58;13.20;;;8.05;;
73113;SDS011;61301;51.956;5.876;2022-12-18T09:53:29;10.50;;;6.78;;
73113;SDS011;61301;51.956;5.876;2022-12-18T09:55:59;10.68;;;7.22;;
73113;SDS011;61301;51.956;5.876;2022-12-18T10:01:10;12.05;;;7.20;;
73113;SDS011;61301;51.956;5.876;2022-12-18T10:03:39;12.02;;;8.18;;
73113;SDS011;61301;51.956;5.876;2022-12-18T10:06:52;13.98;;;8.93;;
73113;SDS011;61301;51.956;5.876;2022-12-18T10:09:02;13.18;;;8.02;;
73113;SDS011;61301;51.956;5.876;2022-12-18T10:20:20;11.73;;;7.47;;
73113;SDS011;61301;51.956;5.876;2022-12-18T10:23:28;16.92;;;9.00;;
73113;SDS011;61301;51.956;5.876;2022-12-18T10:28:42;13.65;;;9.05;;
73113;SDS011;61301;51.956;5.876;2022-12-18T10:31:14;13.50;;;8.27;;
73113;SDS011;61301;51.956;5.876;2022-12-18T10:33:45;12.73;;;7.95;;
73113;SDS011;61301;51.956;5.876;2022-12-18T10:36:11;12.68;;;8.55;;
73113;SDS011;61301;51.956;5.876;2022-12-18T10:38:38;14.95;;;9.55;;
73113;SDS011;61301;51.956;5.876;2022-12-18T10:46:35;14.52;;;9.23;;
73113;SDS011;61301;51.956;5.876;2022-12-18T10:49:02;15.05;;;8.98;;
73113;SDS011;61301;51.956;5.876;2022-12-18T10:54:02;13.18;;;8.05;;
73113;SDS011;61301;51.956;5.876;2022-12-18T10:56:31;13.27;;;8.23;;
73113;SDS011;61301;51.956;5.876;2022-12-18T10:59:03;15.07;;;8.80;;
73113;SDS011;61301;51.956;5.876;2022-12-18T11:02:22;14.25;;;9.32;;
73113;SDS011;61301;51.956;5.876;2022-12-18T11:04:23;15.10;;;9.07;;
73113;SDS011;61301;51.956;5.876;2022-12-18T11:06:57;12.10;;;7.93;;
73113;SDS011;61301;51.956;5.876;2022-12-18T11:09:31;14.18;;;9.07;;
73113;SDS011;61301;51.956;5.876;2022-12-18T11:12:03;15.73;;;8.82;;
73113;SDS011;61301;51.956;5.876;2022-12-18T11:14:44;16.05;;;9.90;;
73113;SDS011;61301;51.956;5.876;2022-12-18T11:17:32;16.05;;;8.68;;
73113;SDS011;61301;51.956;5.876;2022-12-18T11:20:02;14.77;;;9.00;;
73113;SDS011;61301;51.956;5.876;2022-12-18T11:22:35;13.35;;;8.75;;
73113;SDS011;61301;51.956;5.876;2022-12-18T11:25:04;12.45;;;8.23;;
73113;SDS011;61301;51.956;5.876;2022-12-18T11:27:50;15.20;;;8.65;;
73113;SDS011;61301;51.956;5.876;2022-12-18T11:30:22;14.63;;;9.98;;
73113;SDS011;61301;51.956;5.876;2022-12-18T11:35:49;12.75;;;8.80;;
73113;SDS011;61301;51.956;5.876;2022-12-18T11:40:53;13.23;;;8.90;;
73113;SDS011;61301;51.956;5.876;2022-12-18T11:43:38;14.77;;;8.48;;
73113;SDS011;61301;51.956;5.876;2022-12-18T11:46:11;14.23;;;8.95;;
73113;SDS011;61301;51.956;5.876;2022-12-18T11:48:49;15.35;;;9.43;;
73113;SDS011;61301;51.956;5.876;2022-12-18T11:54:19;16.80;;;9.35;;
73113;SDS011;61301;51.956;5.876;2022-12-18T11:56:49;16.33;;;9.65;;
73113;SDS011;61301;51.956;5.876;2022-12-18T12:01:53;13.38;;;8.48;;
73113;SDS011;61301;51.956;5.876;2022-12-18T12:04:32;13.25;;;9.02;;
73113;SDS011;61301;51.956;5.876;2022-12-18T12:12:46;14.95;;;10.05;;
73113;SDS011;61301;51.956;5.876;2022-12-18T12:26:45;14.07;;;9.48;;
73113;SDS011;61301;51.956;5.876;2022-12-18T12:32:30;17.75;;;10.43;;
73113;SDS011;61301;51.956;5.876;2022-12-18T12:37:33;15.43;;;9.07;;
73113;SDS011;61301;51.956;5.876;2022-12-18T12:40:26;13.77;;;9.13;;
73113;SDS011;61301;51.956;5.876;2022-12-18T12:42:56;16.13;;;9.93;;
73113;SDS011;61301;51.956;5.876;2022-12-18T12:45:58;15.75;;;9.73;;
73113;SDS011;61301;51.956;5.876;2022-12-18T12:51:11;15.63;;;9.82;;
73113;SDS011;61301;51.956;5.876;2022-12-18T12:53:44;17.67;;;9.55;;
73113;SDS011;61301;51.956;5.876;2022-12-18T12:56:12;15.48;;;10.05;;
73113;SDS011;61301;51.956;5.876;2022-12-18T12:58:44;14.07;;;9.90;;
73113;SDS011;61301;51.956;5.876;2022-12-18T13:01:26;16.75;;;10.52;;
73113;SDS011;61301;51.956;5.876;2022-12-18T13:04:12;15.55;;;9.88;;
73113;SDS011;61301;51.956;5.876;2022-12-18T13:09:30;15.88;;;10.77;;
73113;SDS011;61301;51.956;5.876;2022-12-18T13:12:01;14.02;;;9.80;;
73113;SDS011;61301;51.956;5.876;2022-12-18T13:14:47;15.13;;;9.05;;
73113;SDS011;61301;51.956;5.876;2022-12-18T13:19:52;17.17;;;10.55;;
73113;SDS011;61301;51.956;5.876;2022-12-18T13:22:40;15.23;;;8.43;;
73113;SDS011;61301;51.956;5.876;2022-12-18T13:28:04;19.15;;;11.75;;
73113;SDS011;61301;51.956;5.876;2022-12-18T13:41:00;15.15;;;10.40;;
73113;SDS011;61301;51.956;5.876;2022-12-18T13:46:06;15.25;;;9.20;;
73113;SDS011;61301;51.956;5.876;2022-12-18T13:48:47;17.10;;;10.38;;
73113;SDS011;61301;51.956;5.876;2022-12-18T13:51:36;15.18;;;9.57;;
73113;SDS011;61301;51.956;5.876;2022-12-18T13:54:24;25.75;;;11.05;;
73113;SDS011;61301;51.956;5.876;2022-12-18T13:57:01;17.23;;;10.90;;
73113;SDS011;61301;51.956;5.876;2022-12-18T13:59:38;15.80;;;9.48;;
73113;SDS011;61301;51.956;5.876;2022-12-18T14:02:09;17.48;;;10.60;;
73113;SDS011;61301;51.956;5.876;2022-12-18T14:04:40;15.80;;;9.52;;
73113;SDS011;61301;51.956;5.876;2022-12-18T14:07:07;16.08;;;10.82;;
73113;SDS011;61301;51.956;5.876;2022-12-18T14:09:39;15.05;;;9.50;;
73113;SDS011;61301;51.956;5.876;2022-12-18T14:12:14;18.63;;;10.85;;
73113;SDS011;61301;51.956;5.876;2022-12-18T14:15:03;15.93;;;9.95;;
73113;SDS011;61301;51.956;5.876;2022-12-18T14:17:32;19.20;;;11.32;;
73113;SDS011;61301;51.956;5.876;2022-12-18T14:19:58;16.52;;;9.75;;
73113;SDS011;61301;51.956;5.876;2022-12-18T14:22:24;16.80;;;9.65;;
73113;SDS011;61301;51.956;5.876;2022-12-18T14:30:34;17.88;;;10.27;;
73113;SDS011;61301;51.956;5.876;2022-12-18T14:33:03;18.70;;;10.13;;
73113;SDS011;61301;51.956;5.876;2022-12-18T14:35:38;19.55;;;11.45;;
73113;SDS011;61301;51.956;5.876;2022-12-18T14:40:57;16.80;;;9.32;;
73113;SDS011;61301;51.956;5.876;2022-12-18T14:43:26;20.95;;;12.05;;
73113;SDS011;61301;51.956;5.876;2022-12-18T14:45:54;16.48;;;10.00;;
73113;SDS011;61301;51.956;5.876;2022-12-18T14:48:22;18.70;;;12.60;;
73113;SDS011;61301;51.956;5.876;2022-12-18T14:50:55;17.90;;;11.07;;
73113;SDS011;61301;51.956;5.876;2022-12-18T14:56:16;19.50;;;11.18;;
73113;SDS011;61301;51.956;5.876;2022-12-18T14:58:46;16.52;;;10.75;;
73113;SDS011;61301;51.956;5.876;2022-12-18T15:01:37;18.45;;;11.38;;
73113;SDS011;61301;51.956;5.876;2022-12-18T15:07:12;18.15;;;11.38;;
73113;SDS011;61301;51.956;5.876;2022-12-18T15:10:00;20.25;;;12.07;;
73113;SDS011;61301;51.956;5.876;2022-12-18T15:12:38;17.95;;;11.27;;
73113;SDS011;61301;51.956;5.876;2022-12-18T15:20:55;19.40;;;12.23;;
73113;SDS011;61301;51.956;5.876;2022-12-18T15:26:09;19.25;;;12.13;;
73113;SDS011;61301;51.956;5.876;2022-12-18T15:28:52;18.88;;;11.82;;
73113;SDS011;61301;51.956;5.876;2022-12-18T15:31:26;19.38;;;11.77;;
73113;SDS011;61301;51.956;5.876;2022-12-18T15:36:39;22.63;;;13.60;;
73113;SDS011;61301;51.956;5.876;2022-12-18T15:39:06;20.48;;;12.73;;
73113;SDS011;61301;51.956;5.876;2022-12-18T15:41:32;21.90;;;12.50;;
73113;SDS011;61301;51.956;5.876;2022-12-18T15:44:00;17.38;;;11.63;;
73113;SDS011;61301;51.956;5.876;2022-12-18T15:46:26;21.08;;;11.88;;
73113;SDS011;61301;51.956;5.876;2022-12-18T15:48:53;21.48;;;13.15;;
73113;SDS011;61301;51.956;5.876;2022-12-18T15:51:31;21.10;;;13.10;;
73113;SDS011;61301;51.956;5.876;2022-12-18T15:54:01;21.45;;;13.13;;
73113;SDS011;61301;51.956;5.876;2022-12-18T15:56:29;23.20;;;12.88;;
73113;SDS011;61301;51.956;5.876;2022-12-18T15:59:15;21.25;;;12.60;;
73113;SDS011;61301;51.956;5.876;2022-12-18T16:01:48;20.33;;;13.13;;
73113;SDS011;61301;51.956;5.876;2022-12-18T16:04:17;21.38;;;12.60;;
73113;SDS011;61301;51.956;5.876;2022-12-18T16:06:46;24.83;;;15.52;;
73113;SDS011;61301;51.956;5.876;2022-12-18T16:09:12;25.33;;;14.68;;
73113;SDS011;61301;51.956;5.876;2022-12-18T16:11:39;22.40;;;13.43;;
73113;SDS011;61301;51.956;5.876;2022-12-18T16:16:43;22.98;;;14.52;;
73113;SDS011;61301;51.956;5.876;2022-12-18T16:19:09;24.67;;;13.07;;
73113;SDS011;61301;51.956;5.876;2022-12-18T16:21:35;20.55;;;13.40;;
73113;SDS011;61301;51.956;5.876;2022-12-18T16:24:01;22.85;;;14.73;;
73113;SDS011;61301;51.956;5.876;2022-12-18T16:26:27;24.58;;;15.15;;
73113;SDS011;61301;51.956;5.876;2022-12-18T16:28:53;22.77;;;13.60;;
73113;SDS011;61301;51.956;5.876;2022-12-18T16:31:19;25.02;;;16.25;;
73113;SDS011;61301;51.956;5.876;2022-12-18T16:33:46;23.02;;;14.68;;
73113;SDS011;61301;51.956;5.876;2022-12-18T16:36:12;25.77;;;14.45;;
73113;SDS011;61301;51.956;5.876;2022-12-18T16:38:38;20.52;;;12.52;;
73113;SDS011;61301;51.956;5.876;2022-12-18T16:41:14;23.85;;;15.00;;
73113;SDS011;61301;51.956;5.876;2022-12-18T16:43:56;26.33;;;14.77;;
73113;SDS011;61301;51.956;5.876;2022-12-18T16:46:22;31.70;;;15.85;;
73113;SDS011;61301;51.956;5.876;2022-12-18T16:48:48;25.55;;;16.50;;
73113;SDS011;61301;51.956;5.876;2022-12-18T16:51:14;22.45;;;14.80;;
73113;SDS011;61301;51.956;5.876;2022-12-18T16:53:40;28.95;;;16.67;;
73113;SDS011;61301;51.956;5.876;2022-12-18T16:56:06;25.13;;;15.43;;
73113;SDS011;61301;51.956;5.876;2022-12-18T16:58:32;26.58;;;15.32;;
73113;SDS011;61301;51.956;5.876;2022-12-18T17:00:58;26.95;;;15.38;;
73113;SDS011;61301;51.956;5.876;2022-12-18T17:03:25;26.13;;;15.35;;
73113;SDS011;61301;51.956;5.876;2022-12-18T17:05:52;27.65;;;15.85;;
73113;SDS011;61301;51.956;5.876;2022-12-18T17:08:18;24.83;;;15.32;;
73113;SDS011;61301;51.956;5.876;2022-12-18T17:10:44;32.17;;;17.85;;
73113;SDS011;61301;51.956;5.876;2022-12-18T17:13:10;26.77;;;16.08;;
73113;SDS011;61301;51.956;5.876;2022-12-18T17:15:36;26.17;;;16.25;;